createdAt,value
2023-02-05T00:03:10.250Z,8.50
2023-02-05T00:08:14.278Z,10.50
2023-02-05T00:13:18.091Z,13.20
2023-02-05T00:18:21.873Z,8.90
2023-02-05T00:23:25.684Z,9.10
2023-02-05T00:28:33.107Z,15.00
2023-02-05T00:33:37.048Z,12.30
2023-02-05T00:38:42.499Z,10.00
2023-02-05T00:43:46.931Z,8.70
2023-02-05T00:48:51.216Z,11.30
2023-02-05T00:53:55.740Z,11.40
2023-02-05T00:59:01.547Z,12.10
2023-02-05T01:04:05.633Z,9.90
2023-02-05T01:09:09.929Z,12.50
2023-02-05T01:14:14.006Z,11.20
2023-02-05T01:19:17.874Z,11.30
2023-02-05T01:24:22.457Z,14.20
2023-02-05T01:29:28.419Z,6.70
2023-02-05T01:34:33.330Z,11.20
2023-02-05T01:39:37.848Z,11.60
2023-02-05T01:44:41.669Z,11.00
2023-02-05T01:49:46.591Z,9.90
2023-02-05T01:54:53.719Z,8.30
2023-02-05T01:59:58.126Z,12.30
2023-02-05T02:05:07.997Z,10.80
2023-02-05T02:10:14.797Z,9.60
2023-02-05T02:15:23.590Z,12.70
2023-02-05T02:20:32.522Z,12.90
2023-02-05T02:25:42.375Z,14.60
2023-02-05T02:31:06.339Z,10.70
2023-02-05T02:36:16.247Z,10.30
2023-02-05T02:41:30.751Z,14.50
2023-02-05T02:46:41.372Z,10.90
2023-02-05T02:51:46.622Z,11.80
2023-02-05T02:56:52.248Z,10.70
2023-02-05T03:01:59.051Z,9.70
2023-02-05T03:07:10.298Z,10.10
2023-02-05T03:12:14.893Z,8.30
2023-02-05T03:17:21.995Z,11.30
2023-02-05T03:22:26.357Z,10.00
2023-02-05T03:27:30.279Z,12.20
2023-02-05T03:33:21.436Z,10.20
2023-02-05T03:38:54.597Z,6.40
2023-02-05T03:44:13.223Z,10.20
2023-02-05T03:49:52.766Z,12.60
2023-02-05T03:55:07.182Z,10.10
2023-02-05T04:00:13.387Z,6.90
2023-02-05T04:05:24.746Z,10.60
2023-02-05T04:10:30.950Z,10.20
2023-02-05T04:15:36.693Z,12.00
2023-02-05T04:20:43.382Z,9.90
2023-02-05T04:25:54.080Z,9.00
2023-02-05T04:31:01.356Z,8.40
2023-02-05T04:36:08.759Z,9.90
2023-02-05T04:41:13.567Z,13.20
2023-02-05T04:46:17.501Z,10.70
2023-02-05T04:51:21.353Z,10.40
2023-02-05T04:56:25.103Z,9.20
2023-02-05T05:01:29.053Z,13.30
2023-02-05T05:06:32.941Z,15.30
2023-02-05T05:11:36.858Z,15.60
2023-02-05T05:16:40.668Z,14.90
2023-02-05T05:21:44.346Z,16.70
2023-02-05T05:26:48.069Z,13.80
2023-02-05T05:31:55.281Z,9.60
2023-02-05T05:36:59.196Z,10.70
2023-02-05T05:42:21.706Z,9.70
2023-02-05T05:47:26.180Z,8.40
2023-02-05T05:52:32.352Z,15.30
2023-02-05T05:57:36.796Z,8.80
2023-02-05T06:02:41.985Z,24.40
2023-02-05T06:07:47.111Z,9.80
2023-02-05T06:12:56.210Z,9.80
2023-02-05T06:18:00.112Z,10.70
2023-02-05T06:23:04.010Z,10.50
2023-02-05T06:28:07.951Z,10.70
2023-02-05T06:33:13.273Z,10.20
2023-02-05T06:38:17.065Z,13.10
2023-02-05T06:43:20.851Z,21.50
2023-02-05T06:48:24.601Z,21.40
2023-02-05T06:53:28.316Z,20.50
2023-02-05T06:58:32.072Z,19.00
2023-02-05T07:03:35.945Z,16.20
2023-02-05T07:08:40.316Z,18.10
2023-02-05T07:13:44.041Z,22.10
2023-02-05T07:18:48.351Z,18.70
2023-02-05T07:23:52.115Z,21.60
2023-02-05T07:28:56.216Z,14.80
2023-02-05T07:34:00.126Z,26.00
2023-02-05T07:39:04.424Z,22.00
2023-02-05T07:44:08.047Z,25.00
2023-02-05T07:49:11.971Z,30.70
2023-02-05T07:54:16.105Z,19.20
2023-02-05T07:59:20.306Z,21.00
2023-02-05T08:04:24.773Z,18.90
2023-02-05T08:09:28.572Z,19.60
2023-02-05T08:14:32.525Z,14.80
2023-02-05T08:19:36.211Z,10.60
2023-02-05T08:24:39.952Z,9.90
2023-02-05T08:29:43.751Z,11.80
2023-02-05T08:34:47.347Z,15.50
2023-02-05T08:39:51.770Z,14.80
2023-02-05T08:44:59.338Z,17.30
2023-02-05T08:50:06.745Z,19.10
2023-02-05T08:55:11.393Z,15.30
2023-02-05T09:00:15.925Z,20.40
2023-02-05T09:05:20.308Z,12.80
2023-02-05T09:10:27.935Z,12.50
2023-02-05T09:15:33.085Z,10.10
2023-02-05T09:20:42.328Z,14.10
2023-02-05T09:25:46.311Z,10.00
2023-02-05T09:30:50.080Z,11.50
2023-02-05T09:35:55.213Z,8.90
2023-02-05T09:41:33.836Z,9.50
2023-02-05T09:46:58.654Z,9.90
2023-02-05T09:52:10.457Z,10.20
2023-02-05T09:57:21.062Z,9.10
2023-02-05T10:02:32.196Z,8.70
2023-02-05T10:08:13.331Z,12.60
2023-02-05T10:13:36.527Z,12.60
2023-02-05T10:19:14.953Z,14.00
2023-02-05T10:24:38.332Z,7.20
2023-02-05T10:30:14.615Z,10.30
2023-02-05T10:35:38.888Z,8.50
2023-02-05T10:40:46.994Z,12.30
2023-02-05T10:45:53.216Z,8.70
2023-02-05T10:51:06.477Z,7.20
2023-02-05T10:56:16.737Z,7.30
2023-02-05T11:01:41.859Z,4.80
2023-02-05T11:06:49.986Z,3.30
2023-02-05T11:12:02.826Z,4.40
2023-02-05T11:22:48.705Z,6.00
2023-02-05T11:28:00.332Z,3.60
2023-02-05T11:33:26.655Z,6.80
2023-02-05T11:38:42.499Z,5.10
2023-02-05T11:43:51.266Z,5.20
2023-02-05T11:48:58.876Z,6.20
2023-02-05T11:54:05.456Z,5.90
2023-02-05T11:59:22.467Z,5.40
2023-02-05T12:04:27.023Z,6.90
2023-02-05T12:09:32.155Z,6.10
2023-02-05T12:15:20.112Z,5.90
2023-02-05T12:20:34.831Z,4.90
2023-02-05T12:26:20.564Z,4.80
2023-02-05T12:32:00.772Z,6.30
2023-02-05T12:37:39.076Z,5.20
2023-02-05T12:42:47.262Z,5.70
2023-02-05T12:48:01.214Z,5.40
2023-02-05T12:53:55.543Z,5.40
2023-02-05T12:59:26.908Z,4.80
2023-02-05T13:04:46.265Z,7.00
2023-02-05T13:10:00.906Z,10.10
2023-02-05T13:15:24.211Z,11.70
2023-02-05T13:20:59.129Z,10.20
2023-02-05T13:26:09.620Z,8.00
2023-02-05T13:31:27.166Z,9.20
2023-02-05T13:36:57.559Z,9.10
2023-02-05T13:42:25.553Z,5.50
2023-02-05T13:47:40.992Z,8.30
2023-02-05T13:53:09.616Z,10.90
2023-02-05T13:58:21.272Z,7.20
2023-02-05T14:03:38.489Z,7.20
2023-02-05T14:08:42.748Z,7.20
2023-02-05T14:14:21.517Z,6.50
2023-02-05T14:19:45.987Z,6.10
2023-02-05T14:24:51.239Z,7.00
2023-02-05T14:29:55.627Z,9.30
2023-02-05T14:35:29.664Z,8.00
2023-02-05T14:40:39.232Z,6.10
2023-02-05T14:45:49.771Z,5.90
2023-02-05T14:51:10.338Z,7.70
2023-02-05T14:56:34.582Z,7.80
2023-02-05T15:02:00.572Z,9.20
2023-02-05T15:07:12.819Z,14.40
2023-02-05T15:13:09.093Z,21.10
2023-02-05T15:18:18.773Z,19.40
2023-02-05T15:23:28.867Z,15.40
2023-02-05T15:28:37.923Z,9.40
2023-02-05T15:34:19.548Z,8.80
2023-02-05T15:40:08.910Z,6.80
2023-02-05T15:45:47.077Z,6.00
2023-02-05T15:51:01.592Z,7.00
2023-02-05T15:56:20.493Z,8.60
2023-02-05T16:01:48.457Z,8.00
2023-02-05T16:06:53.866Z,7.40
2023-02-05T16:12:12.949Z,7.00
2023-02-05T16:17:45.594Z,6.90
2023-02-05T16:23:07.480Z,6.40
2023-02-05T16:28:40.651Z,7.40
2023-02-05T16:34:01.078Z,11.50
2023-02-05T16:39:11.627Z,7.90
2023-02-05T16:44:32.266Z,9.10
2023-02-05T16:49:38.951Z,30.90
2023-02-05T16:54:47.741Z,20.40
2023-02-05T17:00:03.527Z,22.50
2023-02-05T17:05:27.966Z,64.00
2023-02-05T17:10:56.956Z,49.90
2023-02-05T17:16:28.538Z,49.30
2023-02-05T17:21:40.857Z,44.20
2023-02-05T17:26:46.768Z,65.30
2023-02-05T17:32:06.389Z,23.20
2023-02-05T17:37:13.177Z,40.90
2023-02-05T17:42:23.917Z,85.90
2023-02-05T17:47:30.458Z,65.20
2023-02-05T17:52:39.796Z,43.80
2023-02-05T17:57:48.556Z,15.10
2023-02-05T18:02:56.360Z,55.50
2023-02-05T18:08:04.057Z,49.40
2023-02-05T18:13:11.234Z,102.70
2023-02-05T18:18:20.656Z,81.90
2023-02-05T18:23:30.274Z,147.00
2023-02-05T18:28:36.430Z,111.90
2023-02-05T18:33:44.820Z,105.30
2023-02-05T18:38:52.374Z,121.20
2023-02-05T18:43:58.845Z,127.80
2023-02-05T18:49:05.207Z,125.50
2023-02-05T18:54:10.428Z,143.40
2023-02-05T18:59:20.004Z,113.90
2023-02-05T19:04:29.085Z,95.40
2023-02-05T19:09:34.723Z,101.00
2023-02-05T19:14:42.544Z,89.90
2023-02-05T19:20:00.700Z,72.30
2023-02-05T19:30:21.615Z,90.40
2023-02-05T19:35:28.567Z,117.60
2023-02-05T19:40:37.736Z,166.30
2023-02-05T19:45:43.394Z,124.30
2023-02-05T19:50:48.466Z,135.90
2023-02-05T19:55:55.040Z,83.60
2023-02-05T20:01:02.832Z,98.00
2023-02-05T20:06:12.067Z,97.90
2023-02-05T20:11:18.994Z,87.40
2023-02-05T20:16:26.783Z,87.40
2023-02-05T20:21:32.184Z,76.20
2023-02-05T20:26:38.182Z,76.20
2023-02-05T20:31:54.398Z,114.50
2023-02-05T20:37:02.432Z,90.70
2023-02-05T20:42:10.924Z,88.70
2023-02-05T20:47:22.729Z,93.30
2023-02-05T20:52:28.901Z,83.90
2023-02-05T20:57:33.946Z,89.00
2023-02-05T21:02:39.868Z,74.00
2023-02-05T21:07:45.425Z,81.40
2023-02-05T21:12:51.621Z,78.80
2023-02-05T21:17:55.931Z,89.90
2023-02-05T21:23:01.725Z,71.80
2023-02-05T21:28:07.753Z,57.90
2023-02-05T21:33:13.448Z,57.60
2023-02-05T21:38:18.525Z,61.90
2023-02-05T21:43:23.960Z,65.80
2023-02-05T21:48:32.507Z,70.30
2023-02-05T21:53:40.034Z,75.40
2023-02-05T21:58:47.806Z,95.40
2023-02-05T22:03:57.337Z,104.20
2023-02-05T22:09:04.385Z,71.10
2023-02-05T22:14:09.598Z,72.60
2023-02-05T22:19:13.606Z,74.90
2023-02-05T22:24:18.967Z,81.00
2023-02-05T22:29:23.587Z,138.90
2023-02-05T22:34:28.459Z,100.40
2023-02-05T22:39:34.434Z,98.60
2023-02-05T22:44:38.932Z,78.70
2023-02-05T22:49:43.517Z,68.30
2023-02-05T22:54:47.446Z,71.10
2023-02-05T22:59:51.147Z,75.60
2023-02-05T23:04:54.902Z,97.70
2023-02-05T23:09:58.604Z,140.30
2023-02-05T23:15:02.402Z,127.00
2023-02-05T23:20:10.249Z,101.50
2023-02-05T23:25:17.127Z,149.70
2023-02-05T23:30:21.540Z,103.20
2023-02-05T23:35:25.788Z,108.90
2023-02-05T23:40:29.567Z,105.20
2023-02-05T23:45:37.183Z,108.30
2023-02-05T23:50:44.274Z,88.50
2023-02-05T23:55:50.161Z,106.80
